sensor_id;sensor_type;location;lat;lon;timestamp;pressure;altitude;pressure_sealevel;temperature;humidity
22862;BME280;11598;50.652;6.172;2022-07-29T00:01:31;96417.72;;;16.20;60.13
22862;BME280;11598;50.652;6.172;2022-07-29T00:11:31;96403.09;;;16.18;60.22
22862;BME280;11598;50.652;6.172;2022-07-29T00:21:32;96385.44;;;16.20;59.84
22862;BME280;11598;50.652;6.172;2022-07-29T00:31:32;96370.91;;;16.25;59.89
22862;BME280;11598;50.652;6.172;2022-07-29T00:41:32;96364.91;;;16.33;59.40
22862;BME280;11598;50.652;6.172;2022-07-29T00:51:35;96356.06;;;16.34;59.13
22862;BME280;11598;50.652;6.172;2022-07-29T01:01:36;96348.03;;;16.36;59.32
22862;BME280;11598;50.652;6.172;2022-07-29T01:11:37;96350.31;;;16.31;59.76
22862;BME280;11598;50.652;6.172;2022-07-29T01:21:50;96348.50;;;16.13;60.97
22862;BME280;11598;50.652;6.172;2022-07-29T01:32:07;96361.63;;;15.77;62.36
22862;BME280;11598;50.652;6.172;2022-07-29T01:42:35;96350.03;;;15.34;63.62
22862;BME280;11598;50.652;6.172;2022-07-29T01:52:45;96361.03;;;15.10;64.71
22862;BME280;11598;50.652;6.172;2022-07-29T02:02:48;96359.56;;;14.88;65.78
22862;BME280;11598;50.652;6.172;2022-07-29T02:12:51;96361.56;;;14.67;66.40
22862;BME280;11598;50.652;6.172;2022-07-29T02:22:54;96361.59;;;14.57;66.61
22862;BME280;11598;50.652;6.172;2022-07-29T02:32:56;96361.19;;;14.52;67.12
22862;BME280;11598;50.652;6.172;2022-07-29T02:42:56;96365.34;;;14.35;67.30
22862;BME280;11598;50.652;6.172;2022-07-29T03:03:07;96368.09;;;14.24;67.98
22862;BME280;11598;50.652;6.172;2022-07-29T03:13:09;96373.63;;;14.21;68.14
22862;BME280;11598;50.652;6.172;2022-07-29T03:23:10;96362.88;;;14.14;68.61
22862;BME280;11598;50.652;6.172;2022-07-29T03:33:10;96374.97;;;14.05;69.34
22862;BME280;11598;50.652;6.172;2022-07-29T03:43:12;96384.44;;;13.96;70.10
22862;BME280;11598;50.652;6.172;2022-07-29T03:53:14;96388.31;;;13.92;70.50
22862;BME280;11598;50.652;6.172;2022-07-29T04:03:14;96396.41;;;13.89;70.85
22862;BME280;11598;50.652;6.172;2022-07-29T04:13:15;96407.84;;;13.88;71.50
22862;BME280;11598;50.652;6.172;2022-07-29T04:23:16;96390.66;;;13.86;72.43
22862;BME280;11598;50.652;6.172;2022-07-29T04:33:16;96407.38;;;12.93;78.78
22862;BME280;11598;50.652;6.172;2022-07-29T04:43:17;96438.56;;;12.52;82.84
22862;BME280;11598;50.652;6.172;2022-07-29T04:53:17;96421.25;;;12.30;85.46
22862;BME280;11598;50.652;6.172;2022-07-29T05:03:17;96430.91;;;12.18;87.42
22862;BME280;11598;50.652;6.172;2022-07-29T05:13:18;96425.69;;;12.18;89.14
22862;BME280;11598;50.652;6.172;2022-07-29T05:23:18;96437.03;;;12.17;90.20
22862;BME280;11598;50.652;6.172;2022-07-29T05:33:19;96430.91;;;12.18;91.18
22862;BME280;11598;50.652;6.172;2022-07-29T05:43:19;96432.06;;;12.25;92.08
22862;BME280;11598;50.652;6.172;2022-07-29T05:53:21;96432.13;;;12.35;92.56
22862;BME280;11598;50.652;6.172;2022-07-29T06:03:21;96423.94;;;12.40;92.88
22862;BME280;11598;50.652;6.172;2022-07-29T06:13:21;96424.50;;;12.43;92.65
22862;BME280;11598;50.652;6.172;2022-07-29T06:23:22;96436.44;;;12.67;92.41
22862;BME280;11598;50.652;6.172;2022-07-29T06:33:22;96433.13;;;12.86;91.79
22862;BME280;11598;50.652;6.172;2022-07-29T06:43:22;96430.72;;;13.56;91.75
22862;BME280;11598;50.652;6.172;2022-07-29T06:53:23;96441.09;;;14.15;90.85
22862;BME280;11598;50.652;6.172;2022-07-29T07:03:24;96432.06;;;14.58;90.25
22862;BME280;11598;50.652;6.172;2022-07-29T07:13:24;96437.78;;;15.38;87.32
22862;BME280;11598;50.652;6.172;2022-07-29T07:23:25;96432.25;;;15.97;85.05
22862;BME280;11598;50.652;6.172;2022-07-29T07:33:25;96433.78;;;17.31;78.08
22862;BME280;11598;50.652;6.172;2022-07-29T07:43:26;96432.47;;;18.70;68.77
22862;BME280;11598;50.652;6.172;2022-07-29T07:53:26;96448.09;;;19.04;64.30
22862;BME280;11598;50.652;6.172;2022-07-29T08:03:27;96446.09;;;19.14;64.56
22862;BME280;11598;50.652;6.172;2022-07-29T08:13:27;96451.81;;;20.67;57.95
22862;BME280;11598;50.652;6.172;2022-07-29T08:23:28;96461.63;;;20.97;55.64
22862;BME280;11598;50.652;6.172;2022-07-29T08:33:35;96466.97;;;20.42;56.42
22862;BME280;11598;50.652;6.172;2022-07-29T08:43:35;96472.38;;;20.49;56.75
22862;BME280;11598;50.652;6.172;2022-07-29T08:53:37;96467.47;;;20.69;55.77
22862;BME280;11598;50.652;6.172;2022-07-29T09:03:43;96472.09;;;20.67;55.41
22862;BME280;11598;50.652;6.172;2022-07-29T09:13:44;96454.47;;;20.67;56.51
22862;BME280;11598;50.652;6.172;2022-07-29T09:24:12;96477.09;;;20.62;54.10
22862;BME280;11598;50.652;6.172;2022-07-29T09:34:20;96475.00;;;20.95;54.18
22862;BME280;11598;50.652;6.172;2022-07-29T09:44:22;96475.53;;;21.28;52.93
22862;BME280;11598;50.652;6.172;2022-07-29T09:54:24;96479.97;;;21.13;52.51
22862;BME280;11598;50.652;6.172;2022-07-29T10:04:42;96481.41;;;21.01;52.68
22862;BME280;11598;50.652;6.172;2022-07-29T10:14:42;96481.00;;;20.89;52.40
22862;BME280;11598;50.652;6.172;2022-07-29T10:24:43;96482.75;;;20.97;52.11
22862;BME280;11598;50.652;6.172;2022-07-29T10:44:51;96486.41;;;20.96;51.38
22862;BME280;11598;50.652;6.172;2022-07-29T10:54:52;96489.75;;;20.89;52.29
22862;BME280;11598;50.652;6.172;2022-07-29T11:15:00;96502.72;;;20.76;53.67
22862;BME280;11598;50.652;6.172;2022-07-29T11:25:17;96508.75;;;20.85;53.31
22862;BME280;11598;50.652;6.172;2022-07-29T11:35:20;96518.09;;;20.96;54.39
22862;BME280;11598;50.652;6.172;2022-07-29T11:45:23;96524.84;;;20.98;54.04
22862;BME280;11598;50.652;6.172;2022-07-29T11:55:28;96526.94;;;21.03;53.88
22862;BME280;11598;50.652;6.172;2022-07-29T12:05:39;96513.16;;;20.93;54.42
22862;BME280;11598;50.652;6.172;2022-07-29T12:15:41;96515.78;;;21.30;53.59
22862;BME280;11598;50.652;6.172;2022-07-29T12:25:43;96521.53;;;21.34;54.00
22862;BME280;11598;50.652;6.172;2022-07-29T12:35:50;96513.97;;;21.31;53.90
22862;BME280;11598;50.652;6.172;2022-07-29T12:45:53;96511.47;;;21.67;53.47
22862;BME280;11598;50.652;6.172;2022-07-29T12:55:55;96517.03;;;22.02;51.88
22862;BME280;11598;50.652;6.172;2022-07-29T13:05:56;96529.44;;;21.57;52.26
22862;BME280;11598;50.652;6.172;2022-07-29T13:16:07;96530.09;;;21.59;52.96
22862;BME280;11598;50.652;6.172;2022-07-29T13:26:09;96530.03;;;22.33;51.53
22862;BME280;11598;50.652;6.172;2022-07-29T13:36:09;96534.81;;;22.23;51.82
22862;BME280;11598;50.652;6.172;2022-07-29T13:46:10;96536.94;;;22.49;50.41
22862;BME280;11598;50.652;6.172;2022-07-29T13:56:10;96533.06;;;22.01;50.95
22862;BME280;11598;50.652;6.172;2022-07-29T14:06:11;96534.53;;;22.03;52.23
22862;BME280;11598;50.652;6.172;2022-07-29T14:16:11;96539.47;;;21.77;53.29
22862;BME280;11598;50.652;6.172;2022-07-29T14:26:11;96550.59;;;21.87;53.04
22862;BME280;11598;50.652;6.172;2022-07-29T14:36:12;96544.94;;;21.90;52.38
22862;BME280;11598;50.652;6.172;2022-07-29T14:46:12;96544.84;;;21.98;52.68
22862;BME280;11598;50.652;6.172;2022-07-29T14:56:12;96552.88;;;22.05;51.02
22862;BME280;11598;50.652;6.172;2022-07-29T15:06:13;96558.72;;;21.85;50.44
22862;BME280;11598;50.652;6.172;2022-07-29T15:16:13;96564.47;;;21.59;50.63
22862;BME280;11598;50.652;6.172;2022-07-29T15:26:14;96560.78;;;21.22;51.17
22862;BME280;11598;50.652;6.172;2022-07-29T15:36:14;96556.31;;;21.23;51.56
22862;BME280;11598;50.652;6.172;2022-07-29T15:46:16;96562.78;;;21.20;52.68
22862;BME280;11598;50.652;6.172;2022-07-29T15:56:35;96553.16;;;21.27;52.18
22862;BME280;11598;50.652;6.172;2022-07-29T16:06:36;96546.13;;;21.20;52.81
22862;BME280;11598;50.652;6.172;2022-07-29T16:16:37;96551.31;;;21.28;53.11
22862;BME280;11598;50.652;6.172;2022-07-29T16:26:37;96549.69;;;21.27;53.94
22862;BME280;11598;50.652;6.172;2022-07-29T16:36:38;96550.78;;;21.32;54.05
22862;BME280;11598;50.652;6.172;2022-07-29T16:46:38;96558.25;;;21.29;54.07
22862;BME280;11598;50.652;6.172;2022-07-29T16:56:38;96552.25;;;21.35;54.17
22862;BME280;11598;50.652;6.172;2022-07-29T17:06:39;96558.97;;;21.23;54.86
22862;BME280;11598;50.652;6.172;2022-07-29T17:16:40;96554.00;;;21.05;54.51
22862;BME280;11598;50.652;6.172;2022-07-29T17:26:40;96567.78;;;20.92;54.55
22862;BME280;11598;50.652;6.172;2022-07-29T17:36:43;96569.50;;;20.85;55.26
22862;BME280;11598;50.652;6.172;2022-07-29T17:46:44;96570.41;;;20.69;55.46
22862;BME280;11598;50.652;6.172;2022-07-29T17:56:44;96582.91;;;20.44;56.00
22862;BME280;11598;50.652;6.172;2022-07-29T18:06:44;96592.38;;;20.30;56.59
22862;BME280;11598;50.652;6.172;2022-07-29T18:16:45;96599.34;;;20.15;57.12
22862;BME280;11598;50.652;6.172;2022-07-29T18:26:45;96599.22;;;20.08;57.50
22862;BME280;11598;50.652;6.172;2022-07-29T18:36:45;96608.28;;;20.05;57.33
22862;BME280;11598;50.652;6.172;2022-07-29T18:46:46;96604.00;;;20.04;57.81
22862;BME280;11598;50.652;6.172;2022-07-29T18:56:46;96609.78;;;20.00;57.58
22862;BME280;11598;50.652;6.172;2022-07-29T19:06:47;96614.47;;;19.73;58.38
22862;BME280;11598;50.652;6.172;2022-07-29T19:16:47;96618.44;;;19.36;59.37
22862;BME280;11598;50.652;6.172;2022-07-29T19:26:48;96630.59;;;18.96;59.99
22862;BME280;11598;50.652;6.172;2022-07-29T19:36:48;96624.38;;;18.55;61.51
22862;BME280;11598;50.652;6.172;2022-07-29T19:46:48;96643.13;;;18.17;62.75
22862;BME280;11598;50.652;6.172;2022-07-29T19:56:49;96657.63;;;17.78;64.40
22862;BME280;11598;50.652;6.172;2022-07-29T20:06:49;96659.88;;;17.28;65.48
22862;BME280;11598;50.652;6.172;2022-07-29T20:16:52;96665.44;;;16.89;66.72
22862;BME280;11598;50.652;6.172;2022-07-29T20:26:53;96672.25;;;16.55;67.63
22862;BME280;11598;50.652;6.172;2022-07-29T20:36:53;96688.25;;;16.24;68.53
22862;BME280;11598;50.652;6.172;2022-07-29T20:46:54;96688.19;;;15.96;69.28
22862;BME280;11598;50.652;6.172;2022-07-29T20:56:54;96696.78;;;15.79;70.39
22862;BME280;11598;50.652;6.172;2022-07-29T21:06:54;96703.81;;;15.59;71.04
22862;BME280;11598;50.652;6.172;2022-07-29T21:16:55;96727.94;;;15.33;71.43
22862;BME280;11598;50.652;6.172;2022-07-29T21:26:55;96731.78;;;15.29;72.04
22862;BME280;11598;50.652;6.172;2022-07-29T21:37:16;96743.22;;;15.38;72.22
22862;BME280;11598;50.652;6.172;2022-07-29T21:47:16;96729.19;;;15.39;72.45
22862;BME280;11598;50.652;6.172;2022-07-29T21:57:16;96730.69;;;15.22;72.86
22862;BME280;11598;50.652;6.172;2022-07-29T22:07:17;96732.31;;;15.04;73.28
22862;BME280;11598;50.652;6.172;2022-07-29T22:17:17;96721.00;;;14.93;74.02
22862;BME280;11598;50.652;6.172;2022-07-29T22:27:22;96715.88;;;14.82;74.26
22862;BME280;11598;50.652;6.172;2022-07-29T22:37:22;96716.13;;;14.69;74.44
22862;BME280;11598;50.652;6.172;2022-07-29T22:47:23;96708.31;;;14.48;74.86
22862;BME280;11598;50.652;6.172;2022-07-29T22:57:23;96707.09;;;14.22;75.76
22862;BME280;11598;50.652;6.172;2022-07-29T23:07:24;96706.47;;;14.08;76.58
22862;BME280;11598;50.652;6.172;2022-07-29T23:17:25;96698.47;;;14.00;77.17
22862;BME280;11598;50.652;6.172;2022-07-29T23:27:25;96694.16;;;13.89;77.69
22862;BME280;11598;50.652;6.172;2022-07-29T23:37:25;96679.78;;;13.74;77.81
22862;BME280;11598;50.652;6.172;2022-07-29T23:47:26;96676.97;;;13.66;77.70
22862;BME280;11598;50.652;6.172;2022-07-29T23:57:28;96683.03;;;13.66;77.89
